sensor_id;sensor_type;location;lat;lon;timestamp;P1;durP1;ratioP1;P2;durP2;ratioP2
31126;SDS011;17775;57.948;12.514;2023-02-19T00:00:53;4.70;;;1.58;;
31126;SDS011;17775;57.948;12.514;2023-02-19T00:03:19;1.50;;;0.60;;
31126;SDS011;17775;57.948;12.514;2023-02-19T00:05:46;2.10;;;0.57;;
31126;SDS011;17775;57.948;12.514;2023-02-19T00:08:12;1.55;;;0.65;;
31126;SDS011;17775;57.948;12.514;2023-02-19T00:10:38;3.45;;;0.65;;
31126;SDS011;17775;57.948;12.514;2023-02-19T00:13:05;2.83;;;0.47;;
31126;SDS011;17775;57.948;12.514;2023-02-19T00:15:31;3.90;;;0.63;;
31126;SDS011;17775;57.948;12.514;2023-02-19T00:17:58;1.00;;;0.40;;
31126;SDS011;17775;57.948;12.514;2023-02-19T00:20:24;3.40;;;0.65;;
31126;SDS011;17775;57.948;12.514;2023-02-19T00:22:51;1.20;;;0.55;;
31126;SDS011;17775;57.948;12.514;2023-02-19T00:25:19;2.25;;;0.98;;
31126;SDS011;17775;57.948;12.514;2023-02-19T00:27:45;3.08;;;0.50;;
31126;SDS011;17775;57.948;12.514;2023-02-19T00:30:12;2.47;;;0.80;;
31126;SDS011;17775;57.948;12.514;2023-02-19T00:32:38;2.53;;;0.70;;
31126;SDS011;17775;57.948;12.514;2023-02-19T00:35:05;0.77;;;0.50;;
31126;SDS011;17775;57.948;12.514;2023-02-19T00:37:31;1.88;;;0.40;;
31126;SDS011;17775;57.948;12.514;2023-02-19T00:39:58;6.75;;;0.60;;
31126;SDS011;17775;57.948;12.514;2023-02-19T00:42:24;1.02;;;0.40;;
31126;SDS011;17775;57.948;12.514;2023-02-19T00:44:51;0.80;;;0.45;;
31126;SDS011;17775;57.948;12.514;2023-02-19T00:47:17;1.85;;;0.45;;
31126;SDS011;17775;57.948;12.514;2023-02-19T00:49:44;1.15;;;0.30;;
31126;SDS011;17775;57.948;12.514;2023-02-19T00:52:10;3.70;;;0.63;;
31126;SDS011;17775;57.948;12.514;2023-02-19T00:54:37;1.60;;;0.50;;
31126;SDS011;17775;57.948;12.514;2023-02-19T00:57:03;1.35;;;0.50;;
31126;SDS011;17775;57.948;12.514;2023-02-19T00:59:31;0.65;;;0.30;;
31126;SDS011;17775;57.948;12.514;2023-02-19T01:01:57;0.85;;;0.45;;
31126;SDS011;17775;57.948;12.514;2023-02-19T01:04:24;2.90;;;0.50;;
31126;SDS011;17775;57.948;12.514;2023-02-19T01:06:53;2.95;;;0.60;;
31126;SDS011;17775;57.948;12.514;2023-02-19T01:09:20;2.30;;;0.60;;
31126;SDS011;17775;57.948;12.514;2023-02-19T01:11:46;4.00;;;0.60;;
31126;SDS011;17775;57.948;12.514;2023-02-19T01:14:12;1.85;;;0.52;;
31126;SDS011;17775;57.948;12.514;2023-02-19T01:16:39;0.50;;;0.32;;
31126;SDS011;17775;57.948;12.514;2023-02-19T01:19:05;1.67;;;0.50;;
31126;SDS011;17775;57.948;12.514;2023-02-19T01:21:32;0.43;;;0.35;;
31126;SDS011;17775;57.948;12.514;2023-02-19T01:23:58;2.83;;;0.50;;
31126;SDS011;17775;57.948;12.514;2023-02-19T01:26:29;1.38;;;0.50;;
31126;SDS011;17775;57.948;12.514;2023-02-19T01:28:57;2.33;;;0.70;;
31126;SDS011;17775;57.948;12.514;2023-02-19T01:31:23;1.65;;;0.63;;
31126;SDS011;17775;57.948;12.514;2023-02-19T01:33:51;2.72;;;0.40;;
31126;SDS011;17775;57.948;12.514;2023-02-19T01:36:18;0.77;;;0.38;;
31126;SDS011;17775;57.948;12.514;2023-02-19T01:38:45;2.38;;;0.60;;
31126;SDS011;17775;57.948;12.514;2023-02-19T01:41:16;0.32;;;0.32;;
31126;SDS011;17775;57.948;12.514;2023-02-19T01:43:57;1.30;;;0.50;;
31126;SDS011;17775;57.948;12.514;2023-02-19T01:46:24;1.70;;;0.70;;
31126;SDS011;17775;57.948;12.514;2023-02-19T01:48:51;0.70;;;0.32;;
31126;SDS011;17775;57.948;12.514;2023-02-19T01:51:18;0.30;;;0.30;;
31126;SDS011;17775;57.948;12.514;2023-02-19T01:53:46;3.03;;;0.82;;
31126;SDS011;17775;57.948;12.514;2023-02-19T01:56:16;0.60;;;0.60;;
31126;SDS011;17775;57.948;12.514;2023-02-19T01:58:43;3.42;;;0.60;;
31126;SDS011;17775;57.948;12.514;2023-02-19T02:01:10;2.25;;;0.40;;
31126;SDS011;17775;57.948;12.514;2023-02-19T02:03:37;1.23;;;0.47;;
31126;SDS011;17775;57.948;12.514;2023-02-19T02:06:25;0.73;;;0.40;;
31126;SDS011;17775;57.948;12.514;2023-02-19T02:08:54;0.47;;;0.30;;
31126;SDS011;17775;57.948;12.514;2023-02-19T02:11:49;4.13;;;0.75;;
31126;SDS011;17775;57.948;12.514;2023-02-19T02:14:16;2.47;;;0.43;;
31126;SDS011;17775;57.948;12.514;2023-02-19T02:17:29;2.35;;;0.43;;
31126;SDS011;17775;57.948;12.514;2023-02-19T02:22:17;1.25;;;0.45;;
31126;SDS011;17775;57.948;12.514;2023-02-19T02:24:49;0.40;;;0.30;;
31126;SDS011;17775;57.948;12.514;2023-02-19T02:30:05;2.75;;;0.50;;
31126;SDS011;17775;57.948;12.514;2023-02-19T02:32:43;1.15;;;0.50;;
31126;SDS011;17775;57.948;12.514;2023-02-19T02:35:19;0.43;;;0.35;;
31126;SDS011;17775;57.948;12.514;2023-02-19T02:37:47;0.80;;;0.60;;
31126;SDS011;17775;57.948;12.514;2023-02-19T02:40:14;1.50;;;0.55;;
31126;SDS011;17775;57.948;12.514;2023-02-19T02:42:42;0.68;;;0.45;;
31126;SDS011;17775;57.948;12.514;2023-02-19T02:50:51;3.30;;;0.75;;
31126;SDS011;17775;57.948;12.514;2023-02-19T02:53:26;3.33;;;0.90;;
31126;SDS011;17775;57.948;12.514;2023-02-19T02:56:13;5.57;;;0.93;;
31126;SDS011;17775;57.948;12.514;2023-02-19T02:58:41;2.42;;;0.98;;
31126;SDS011;17775;57.948;12.514;2023-02-19T03:01:14;1.45;;;0.65;;
31126;SDS011;17775;57.948;12.514;2023-02-19T03:04:02;1.45;;;0.60;;
31126;SDS011;17775;57.948;12.514;2023-02-19T03:06:30;2.78;;;0.60;;
31126;SDS011;17775;57.948;12.514;2023-02-19T03:09:01;1.30;;;0.60;;
31126;SDS011;17775;57.948;12.514;2023-02-19T03:11:31;0.77;;;0.57;;
31126;SDS011;17775;57.948;12.514;2023-02-19T03:14:20;2.17;;;0.50;;
31126;SDS011;17775;57.948;12.514;2023-02-19T03:17:11;3.35;;;0.57;;
31126;SDS011;17775;57.948;12.514;2023-02-19T03:20:03;2.70;;;0.30;;
31126;SDS011;17775;57.948;12.514;2023-02-19T03:22:30;1.42;;;0.60;;
31126;SDS011;17775;57.948;12.514;2023-02-19T03:25:06;2.35;;;0.40;;
31126;SDS011;17775;57.948;12.514;2023-02-19T03:27:53;0.32;;;0.32;;
31126;SDS011;17775;57.948;12.514;2023-02-19T03:30:23;3.35;;;0.50;;
31126;SDS011;17775;57.948;12.514;2023-02-19T03:32:51;1.17;;;0.40;;
31126;SDS011;17775;57.948;12.514;2023-02-19T03:35:20;1.58;;;0.60;;
31126;SDS011;17775;57.948;12.514;2023-02-19T03:38:01;1.90;;;0.40;;
31126;SDS011;17775;57.948;12.514;2023-02-19T03:40:29;3.33;;;0.68;;
31126;SDS011;17775;57.948;12.514;2023-02-19T03:48:18;0.95;;;0.40;;
31126;SDS011;17775;57.948;12.514;2023-02-19T03:58:32;1.65;;;0.55;;
31126;SDS011;17775;57.948;12.514;2023-02-19T04:03:35;1.05;;;0.50;;
31126;SDS011;17775;57.948;12.514;2023-02-19T04:06:10;0.80;;;0.52;;
31126;SDS011;17775;57.948;12.514;2023-02-19T04:08:38;0.43;;;0.40;;
31126;SDS011;17775;57.948;12.514;2023-02-19T04:11:07;2.83;;;0.30;;
31126;SDS011;17775;57.948;12.514;2023-02-19T04:13:36;0.73;;;0.40;;
31126;SDS011;17775;57.948;12.514;2023-02-19T04:18:34;1.58;;;0.30;;
31126;SDS011;17775;57.948;12.514;2023-02-19T04:21:01;0.82;;;0.45;;
31126;SDS011;17775;57.948;12.514;2023-02-19T04:23:29;0.40;;;0.32;;
31126;SDS011;17775;57.948;12.514;2023-02-19T04:25:58;0.60;;;0.40;;
31126;SDS011;17775;57.948;12.514;2023-02-19T04:28:27;3.90;;;0.60;;
31126;SDS011;17775;57.948;12.514;2023-02-19T04:30:53;2.30;;;0.40;;
31126;SDS011;17775;57.948;12.514;2023-02-19T04:33:20;0.35;;;0.30;;
31126;SDS011;17775;57.948;12.514;2023-02-19T04:35:46;2.15;;;0.40;;
31126;SDS011;17775;57.948;12.514;2023-02-19T04:38:13;1.20;;;0.85;;
31126;SDS011;17775;57.948;12.514;2023-02-19T04:40:40;1.33;;;0.40;;
31126;SDS011;17775;57.948;12.514;2023-02-19T04:43:06;0.30;;;0.30;;
31126;SDS011;17775;57.948;12.514;2023-02-19T04:45:32;3.40;;;0.40;;
31126;SDS011;17775;57.948;12.514;2023-02-19T04:47:59;0.47;;;0.43;;
31126;SDS011;17775;57.948;12.514;2023-02-19T04:50:25;2.03;;;0.40;;
31126;SDS011;17775;57.948;12.514;2023-02-19T04:52:52;2.80;;;0.40;;
31126;SDS011;17775;57.948;12.514;2023-02-19T04:55:18;3.13;;;0.30;;
31126;SDS011;17775;57.948;12.514;2023-02-19T04:57:45;2.22;;;0.60;;
31126;SDS011;17775;57.948;12.514;2023-02-19T05:00:13;0.55;;;0.30;;
31126;SDS011;17775;57.948;12.514;2023-02-19T05:02:40;3.30;;;0.55;;
31126;SDS011;17775;57.948;12.514;2023-02-19T05:05:07;1.35;;;0.47;;
31126;SDS011;17775;57.948;12.514;2023-02-19T05:07:33;0.40;;;0.30;;
31126;SDS011;17775;57.948;12.514;2023-02-19T05:10:00;1.48;;;0.65;;
31126;SDS011;17775;57.948;12.514;2023-02-19T05:12:28;0.73;;;0.50;;
31126;SDS011;17775;57.948;12.514;2023-02-19T05:14:54;1.05;;;0.40;;
31126;SDS011;17775;57.948;12.514;2023-02-19T05:17:21;2.75;;;0.50;;
31126;SDS011;17775;57.948;12.514;2023-02-19T05:19:49;0.40;;;0.30;;
31126;SDS011;17775;57.948;12.514;2023-02-19T05:22:15;1.77;;;0.45;;
31126;SDS011;17775;57.948;12.514;2023-02-19T05:24:42;1.00;;;0.30;;
31126;SDS011;17775;57.948;12.514;2023-02-19T05:27:08;2.00;;;0.40;;
31126;SDS011;17775;57.948;12.514;2023-02-19T05:29:35;1.42;;;0.40;;
31126;SDS011;17775;57.948;12.514;2023-02-19T05:32:01;3.40;;;0.52;;
31126;SDS011;17775;57.948;12.514;2023-02-19T05:34:28;0.30;;;0.30;;
31126;SDS011;17775;57.948;12.514;2023-02-19T05:36:54;1.17;;;0.90;;
31126;SDS011;17775;57.948;12.514;2023-02-19T05:39:20;0.82;;;0.30;;
31126;SDS011;17775;57.948;12.514;2023-02-19T05:41:47;0.30;;;0.30;;
31126;SDS011;17775;57.948;12.514;2023-02-19T05:44:13;1.05;;;0.40;;
31126;SDS011;17775;57.948;12.514;2023-02-19T05:46:40;3.10;;;0.43;;
31126;SDS011;17775;57.948;12.514;2023-02-19T05:49:06;0.85;;;0.30;;
31126;SDS011;17775;57.948;12.514;2023-02-19T05:51:33;1.50;;;0.50;;
31126;SDS011;17775;57.948;12.514;2023-02-19T05:53:59;1.67;;;0.40;;
31126;SDS011;17775;57.948;12.514;2023-02-19T05:56:36;3.53;;;0.68;;
31126;SDS011;17775;57.948;12.514;2023-02-19T05:59:20;0.30;;;0.30;;
31126;SDS011;17775;57.948;12.514;2023-02-19T06:01:47;2.30;;;0.40;;
31126;SDS011;17775;57.948;12.514;2023-02-19T06:04:14;0.60;;;0.50;;
31126;SDS011;17775;57.948;12.514;2023-02-19T06:06:41;1.77;;;0.63;;
31126;SDS011;17775;57.948;12.514;2023-02-19T06:09:08;1.13;;;0.40;;
31126;SDS011;17775;57.948;12.514;2023-02-19T06:11:34;1.77;;;0.30;;
31126;SDS011;17775;57.948;12.514;2023-02-19T06:14:01;0.75;;;0.30;;
31126;SDS011;17775;57.948;12.514;2023-02-19T06:16:27;2.92;;;0.40;;
31126;SDS011;17775;57.948;12.514;2023-02-19T06:18:54;1.67;;;0.47;;
31126;SDS011;17775;57.948;12.514;2023-02-19T06:21:23;4.28;;;0.60;;
31126;SDS011;17775;57.948;12.514;2023-02-19T06:23:49;0.88;;;0.40;;
31126;SDS011;17775;57.948;12.514;2023-02-19T06:26:17;1.55;;;0.40;;
31126;SDS011;17775;57.948;12.514;2023-02-19T06:28:44;0.93;;;0.63;;
31126;SDS011;17775;57.948;12.514;2023-02-19T06:31:11;1.75;;;0.57;;
31126;SDS011;17775;57.948;12.514;2023-02-19T06:33:39;4.25;;;0.50;;
31126;SDS011;17775;57.948;12.514;2023-02-19T06:36:12;0.55;;;0.30;;
31126;SDS011;17775;57.948;12.514;2023-02-19T06:38:39;0.85;;;0.40;;
31126;SDS011;17775;57.948;12.514;2023-02-19T06:41:06;2.88;;;0.75;;
31126;SDS011;17775;57.948;12.514;2023-02-19T06:43:33;1.80;;;0.70;;
31126;SDS011;17775;57.948;12.514;2023-02-19T06:46:00;2.33;;;0.90;;
31126;SDS011;17775;57.948;12.514;2023-02-19T06:48:27;3.47;;;1.45;;
31126;SDS011;17775;57.948;12.514;2023-02-19T06:50:54;2.65;;;1.27;;
31126;SDS011;17775;57.948;12.514;2023-02-19T06:53:21;4.45;;;2.20;;
31126;SDS011;17775;57.948;12.514;2023-02-19T06:55:54;5.00;;;2.65;;
31126;SDS011;17775;57.948;12.514;2023-02-19T06:58:20;6.38;;;2.92;;
31126;SDS011;17775;57.948;12.514;2023-02-19T07:00:47;5.78;;;2.90;;
31126;SDS011;17775;57.948;12.514;2023-02-19T07:03:13;5.07;;;2.42;;
31126;SDS011;17775;57.948;12.514;2023-02-19T07:05:40;6.53;;;3.13;;
31126;SDS011;17775;57.948;12.514;2023-02-19T07:08:06;2.58;;;1.40;;
31126;SDS011;17775;57.948;12.514;2023-02-19T07:10:33;6.00;;;1.60;;
31126;SDS011;17775;57.948;12.514;2023-02-19T07:12:59;2.25;;;1.10;;
31126;SDS011;17775;57.948;12.514;2023-02-19T07:15:25;7.28;;;2.30;;
31126;SDS011;17775;57.948;12.514;2023-02-19T07:17:52;15.38;;;4.47;;
31126;SDS011;17775;57.948;12.514;2023-02-19T07:20:18;14.27;;;4.20;;
31126;SDS011;17775;57.948;12.514;2023-02-19T07:22:45;21.52;;;5.72;;
31126;SDS011;17775;57.948;12.514;2023-02-19T07:25:11;12.82;;;3.60;;
31126;SDS011;17775;57.948;12.514;2023-02-19T07:27:41;15.30;;;4.90;;
31126;SDS011;17775;57.948;12.514;2023-02-19T07:30:07;14.80;;;4.60;;
31126;SDS011;17775;57.948;12.514;2023-02-19T07:32:34;27.20;;;8.45;;
31126;SDS011;17775;57.948;12.514;2023-02-19T07:35:00;25.95;;;7.30;;
31126;SDS011;17775;57.948;12.514;2023-02-19T07:37:27;19.30;;;5.95;;
31126;SDS011;17775;57.948;12.514;2023-02-19T07:39:53;8.48;;;2.30;;
31126;SDS011;17775;57.948;12.514;2023-02-19T07:42:20;10.18;;;2.30;;
31126;SDS011;17775;57.948;12.514;2023-02-19T07:44:46;3.30;;;1.10;;
31126;SDS011;17775;57.948;12.514;2023-02-19T07:47:14;4.18;;;0.98;;
31126;SDS011;17775;57.948;12.514;2023-02-19T07:49:41;1.00;;;0.60;;
31126;SDS011;17775;57.948;12.514;2023-02-19T07:52:07;2.35;;;0.60;;
31126;SDS011;17775;57.948;12.514;2023-02-19T07:54:34;4.88;;;0.65;;
31126;SDS011;17775;57.948;12.514;2023-02-19T07:57:00;0.93;;;0.52;;
31126;SDS011;17775;57.948;12.514;2023-02-19T07:59:27;0.98;;;0.45;;
31126;SDS011;17775;57.948;12.514;2023-02-19T08:01:53;1.83;;;0.65;;
31126;SDS011;17775;57.948;12.514;2023-02-19T08:04:38;2.25;;;0.60;;
31126;SDS011;17775;57.948;12.514;2023-02-19T08:07:05;1.13;;;0.50;;
31126;SDS011;17775;57.948;12.514;2023-02-19T08:09:32;0.93;;;0.50;;
31126;SDS011;17775;57.948;12.514;2023-02-19T08:11:58;1.20;;;0.52;;
31126;SDS011;17775;57.948;12.514;2023-02-19T08:14:43;1.67;;;0.50;;
31126;SDS011;17775;57.948;12.514;2023-02-19T08:17:09;3.53;;;0.70;;
31126;SDS011;17775;57.948;12.514;2023-02-19T08:19:36;0.47;;;0.40;;
31126;SDS011;17775;57.948;12.514;2023-02-19T08:22:02;2.35;;;0.75;;
31126;SDS011;17775;57.948;12.514;2023-02-19T08:24:29;1.08;;;0.40;;
31126;SDS011;17775;57.948;12.514;2023-02-19T08:26:58;0.95;;;0.40;;
31126;SDS011;17775;57.948;12.514;2023-02-19T08:29:25;0.47;;;0.30;;
31126;SDS011;17775;57.948;12.514;2023-02-19T08:31:51;3.88;;;0.50;;
31126;SDS011;17775;57.948;12.514;2023-02-19T08:34:18;1.52;;;0.50;;
31126;SDS011;17775;57.948;12.514;2023-02-19T08:36:44;2.65;;;0.50;;
31126;SDS011;17775;57.948;12.514;2023-02-19T08:39:11;0.30;;;0.30;;
31126;SDS011;17775;57.948;12.514;2023-02-19T08:41:39;1.88;;;0.80;;
31126;SDS011;17775;57.948;12.514;2023-02-19T08:44:06;1.98;;;0.47;;
31126;SDS011;17775;57.948;12.514;2023-02-19T08:46:32;1.98;;;0.40;;
31126;SDS011;17775;57.948;12.514;2023-02-19T08:48:59;0.82;;;0.40;;
31126;SDS011;17775;57.948;12.514;2023-02-19T08:51:26;1.02;;;0.40;;
31126;SDS011;17775;57.948;12.514;2023-02-19T08:53:52;1.70;;;0.52;;
31126;SDS011;17775;57.948;12.514;2023-02-19T08:56:19;1.60;;;0.50;;
31126;SDS011;17775;57.948;12.514;2023-02-19T08:58:45;6.90;;;0.80;;
31126;SDS011;17775;57.948;12.514;2023-02-19T09:01:13;2.00;;;0.63;;
31126;SDS011;17775;57.948;12.514;2023-02-19T09:03:40;0.55;;;0.35;;
31126;SDS011;17775;57.948;12.514;2023-02-19T09:06:09;0.80;;;0.35;;
31126;SDS011;17775;57.948;12.514;2023-02-19T09:08:36;2.47;;;0.50;;
31126;SDS011;17775;57.948;12.514;2023-02-19T09:11:03;1.95;;;0.68;;
31126;SDS011;17775;57.948;12.514;2023-02-19T09:13:30;2.38;;;0.57;;
31126;SDS011;17775;57.948;12.514;2023-02-19T09:15:56;4.22;;;0.50;;
31126;SDS011;17775;57.948;12.514;2023-02-19T09:18:23;1.88;;;0.60;;
31126;SDS011;17775;57.948;12.514;2023-02-19T09:20:50;1.73;;;0.52;;
31126;SDS011;17775;57.948;12.514;2023-02-19T09:23:16;4.30;;;0.70;;
31126;SDS011;17775;57.948;12.514;2023-02-19T09:25:43;1.95;;;0.60;;
31126;SDS011;17775;57.948;12.514;2023-02-19T09:28:09;4.15;;;1.05;;
31126;SDS011;17775;57.948;12.514;2023-02-19T09:30:36;1.45;;;0.52;;
31126;SDS011;17775;57.948;12.514;2023-02-19T09:33:03;6.70;;;0.60;;
31126;SDS011;17775;57.948;12.514;2023-02-19T09:35:30;0.82;;;0.50;;
31126;SDS011;17775;57.948;12.514;2023-02-19T09:37:58;2.13;;;0.70;;
31126;SDS011;17775;57.948;12.514;2023-02-19T09:40:24;3.40;;;0.70;;
31126;SDS011;17775;57.948;12.514;2023-02-19T09:42:51;1.88;;;0.55;;
31126;SDS011;17775;57.948;12.514;2023-02-19T09:45:19;2.60;;;0.60;;
31126;SDS011;17775;57.948;12.514;2023-02-19T09:47:46;2.30;;;0.82;;
31126;SDS011;17775;57.948;12.514;2023-02-19T09:50:14;3.00;;;0.60;;
31126;SDS011;17775;57.948;12.514;2023-02-19T09:52:44;1.65;;;0.93;;
31126;SDS011;17775;57.948;12.514;2023-02-19T09:55:17;3.10;;;0.80;;
31126;SDS011;17775;57.948;12.514;2023-02-19T09:57:45;1.02;;;0.47;;
31126;SDS011;17775;57.948;12.514;2023-02-19T10:00:24;2.67;;;0.50;;
31126;SDS011;17775;57.948;12.514;2023-02-19T10:03:11;0.50;;;0.50;;
31126;SDS011;17775;57.948;12.514;2023-02-19T10:05:39;1.83;;;0.50;;
31126;SDS011;17775;57.948;12.514;2023-02-19T10:08:07;0.90;;;0.40;;
31126;SDS011;17775;57.948;12.514;2023-02-19T10:10:35;2.83;;;0.47;;
31126;SDS011;17775;57.948;12.514;2023-02-19T10:13:13;0.30;;;0.30;;
31126;SDS011;17775;57.948;12.514;2023-02-19T10:15:52;0.40;;;0.40;;
31126;SDS011;17775;57.948;12.514;2023-02-19T10:18:21;1.38;;;0.60;;
31126;SDS011;17775;57.948;12.514;2023-02-19T10:20:48;2.13;;;0.50;;
31126;SDS011;17775;57.948;12.514;2023-02-19T10:23:17;2.88;;;1.10;;
31126;SDS011;17775;57.948;12.514;2023-02-19T10:25:46;0.57;;;0.35;;
31126;SDS011;17775;57.948;12.514;2023-02-19T10:28:16;2.65;;;0.60;;
31126;SDS011;17775;57.948;12.514;2023-02-19T10:30:43;1.75;;;0.57;;
31126;SDS011;17775;57.948;12.514;2023-02-19T10:33:13;0.75;;;0.50;;
31126;SDS011;17775;57.948;12.514;2023-02-19T10:38:27;0.73;;;0.40;;
31126;SDS011;17775;57.948;12.514;2023-02-19T10:41:05;1.08;;;0.43;;
31126;SDS011;17775;57.948;12.514;2023-02-19T10:43:36;3.13;;;0.65;;
31126;SDS011;17775;57.948;12.514;2023-02-19T10:46:06;0.38;;;0.38;;
31126;SDS011;17775;57.948;12.514;2023-02-19T10:48:40;1.48;;;0.70;;
31126;SDS011;17775;57.948;12.514;2023-02-19T10:51:08;2.10;;;0.50;;
31126;SDS011;17775;57.948;12.514;2023-02-19T10:53:41;1.98;;;0.55;;
31126;SDS011;17775;57.948;12.514;2023-02-19T10:58:34;0.95;;;0.43;;
31126;SDS011;17775;57.948;12.514;2023-02-19T11:01:16;1.85;;;0.57;;
31126;SDS011;17775;57.948;12.514;2023-02-19T11:03:45;3.53;;;0.60;;
31126;SDS011;17775;57.948;12.514;2023-02-19T11:06:14;2.60;;;0.50;;
31126;SDS011;17775;57.948;12.514;2023-02-19T11:08:45;2.72;;;1.20;;
31126;SDS011;17775;57.948;12.514;2023-02-19T11:13:59;1.80;;;0.52;;
31126;SDS011;17775;57.948;12.514;2023-02-19T11:16:37;4.05;;;0.68;;
31126;SDS011;17775;57.948;12.514;2023-02-19T11:21:49;3.63;;;0.50;;
31126;SDS011;17775;57.948;12.514;2023-02-19T11:24:29;1.42;;;0.68;;
31126;SDS011;17775;57.948;12.514;2023-02-19T11:26:56;1.75;;;0.57;;
31126;SDS011;17775;57.948;12.514;2023-02-19T11:29:23;3.63;;;0.80;;
31126;SDS011;17775;57.948;12.514;2023-02-19T11:31:54;4.03;;;0.50;;
31126;SDS011;17775;57.948;12.514;2023-02-19T11:34:24;3.72;;;0.70;;
31126;SDS011;17775;57.948;12.514;2023-02-19T11:37:11;5.18;;;0.60;;
31126;SDS011;17775;57.948;12.514;2023-02-19T11:39:39;0.40;;;0.40;;
31126;SDS011;17775;57.948;12.514;2023-02-19T11:52:41;1.70;;;0.88;;
31126;SDS011;17775;57.948;12.514;2023-02-19T12:02:50;4.05;;;0.70;;
31126;SDS011;17775;57.948;12.514;2023-02-19T12:10:20;3.30;;;0.80;;
31126;SDS011;17775;57.948;12.514;2023-02-19T12:25:54;3.97;;;1.60;;
31126;SDS011;17775;57.948;12.514;2023-02-19T12:33:29;2.55;;;0.70;;
31126;SDS011;17775;57.948;12.514;2023-02-19T12:41:26;0.45;;;0.40;;
31126;SDS011;17775;57.948;12.514;2023-02-19T12:43:57;3.00;;;0.60;;
31126;SDS011;17775;57.948;12.514;2023-02-19T12:46:28;8.43;;;1.33;;
31126;SDS011;17775;57.948;12.514;2023-02-19T12:49:16;2.35;;;0.57;;
31126;SDS011;17775;57.948;12.514;2023-02-19T13:07:16;1.95;;;1.15;;
31126;SDS011;17775;57.948;12.514;2023-02-19T13:09:52;4.82;;;0.82;;
31126;SDS011;17775;57.948;12.514;2023-02-19T13:12:33;2.90;;;0.85;;
31126;SDS011;17775;57.948;12.514;2023-02-19T13:15:08;4.60;;;0.93;;
31126;SDS011;17775;57.948;12.514;2023-02-19T13:17:42;4.82;;;1.00;;
31126;SDS011;17775;57.948;12.514;2023-02-19T13:31:21;7.07;;;0.93;;
31126;SDS011;17775;57.948;12.514;2023-02-19T13:36:27;2.45;;;1.00;;
31126;SDS011;17775;57.948;12.514;2023-02-19T13:38:54;5.57;;;1.10;;
31126;SDS011;17775;57.948;12.514;2023-02-19T13:41:33;2.60;;;0.82;;
31126;SDS011;17775;57.948;12.514;2023-02-19T13:44:02;1.40;;;0.57;;
31126;SDS011;17775;57.948;12.514;2023-02-19T13:46:33;1.13;;;0.70;;
31126;SDS011;17775;57.948;12.514;2023-02-19T13:51:54;6.25;;;0.70;;
31126;SDS011;17775;57.948;12.514;2023-02-19T13:56:48;2.15;;;0.50;;
31126;SDS011;17775;57.948;12.514;2023-02-19T14:02:12;1.23;;;0.50;;
31126;SDS011;17775;57.948;12.514;2023-02-19T14:14:46;1.58;;;0.52;;
31126;SDS011;17775;57.948;12.514;2023-02-19T14:19:59;3.63;;;0.80;;
31126;SDS011;17775;57.948;12.514;2023-02-19T14:25:23;2.47;;;0.65;;
31126;SDS011;17775;57.948;12.514;2023-02-19T14:28:03;1.88;;;0.90;;
31126;SDS011;17775;57.948;12.514;2023-02-19T14:30:32;9.65;;;2.80;;
31126;SDS011;17775;57.948;12.514;2023-02-19T14:32:59;5.35;;;1.52;;
31126;SDS011;17775;57.948;12.514;2023-02-19T14:35:43;6.50;;;2.70;;
31126;SDS011;17775;57.948;12.514;2023-02-19T14:38:19;3.00;;;1.63;;
31126;SDS011;17775;57.948;12.514;2023-02-19T14:40:46;5.03;;;1.48;;
31126;SDS011;17775;57.948;12.514;2023-02-19T14:43:15;4.00;;;0.98;;
31126;SDS011;17775;57.948;12.514;2023-02-19T14:45:43;2.88;;;0.73;;
31126;SDS011;17775;57.948;12.514;2023-02-19T14:48:17;3.45;;;1.20;;
31126;SDS011;17775;57.948;12.514;2023-02-19T14:50:47;4.88;;;1.10;;
31126;SDS011;17775;57.948;12.514;2023-02-19T14:53:15;2.30;;;0.85;;
31126;SDS011;17775;57.948;12.514;2023-02-19T14:55:42;1.98;;;0.80;;
31126;SDS011;17775;57.948;12.514;2023-02-19T14:58:53;0.85;;;0.45;;
31126;SDS011;17775;57.948;12.514;2023-02-19T15:01:02;1.52;;;0.50;;
31126;SDS011;17775;57.948;12.514;2023-02-19T15:03:32;2.03;;;0.70;;
31126;SDS011;17775;57.948;12.514;2023-02-19T15:06:00;4.25;;;0.60;;
31126;SDS011;17775;57.948;12.514;2023-02-19T15:08:46;2.28;;;0.65;;
31126;SDS011;17775;57.948;12.514;2023-02-19T15:11:18;4.20;;;0.75;;
31126;SDS011;17775;57.948;12.514;2023-02-19T15:14:04;2.00;;;0.68;;
31126;SDS011;17775;57.948;12.514;2023-02-19T15:16:32;2.45;;;0.70;;
31126;SDS011;17775;57.948;12.514;2023-02-19T15:19:00;3.42;;;0.88;;
31126;SDS011;17775;57.948;12.514;2023-02-19T15:21:30;3.05;;;1.33;;
31126;SDS011;17775;57.948;12.514;2023-02-19T15:24:01;5.20;;;0.95;;
31126;SDS011;17775;57.948;12.514;2023-02-19T15:29:25;2.53;;;1.15;;
31126;SDS011;17775;57.948;12.514;2023-02-19T15:31:53;2.00;;;1.10;;
31126;SDS011;17775;57.948;12.514;2023-02-19T15:34:24;1.92;;;1.00;;
31126;SDS011;17775;57.948;12.514;2023-02-19T15:36:54;4.72;;;1.27;;
31126;SDS011;17775;57.948;12.514;2023-02-19T15:39:22;3.78;;;0.93;;
31126;SDS011;17775;57.948;12.514;2023-02-19T15:41:52;4.95;;;1.80;;
31126;SDS011;17775;57.948;12.514;2023-02-19T15:44:44;3.33;;;1.25;;
31126;SDS011;17775;57.948;12.514;2023-02-19T15:47:08;5.38;;;1.67;;
31126;SDS011;17775;57.948;12.514;2023-02-19T15:49:56;2.88;;;1.45;;
31126;SDS011;17775;57.948;12.514;2023-02-19T15:53:07;4.30;;;1.20;;
31126;SDS011;17775;57.948;12.514;2023-02-19T15:57:45;5.68;;;1.30;;
31126;SDS011;17775;57.948;12.514;2023-02-19T16:00:23;3.10;;;1.05;;
31126;SDS011;17775;57.948;12.514;2023-02-19T16:02:52;4.75;;;1.00;;
31126;SDS011;17775;57.948;12.514;2023-02-19T16:05:24;3.70;;;0.95;;
31126;SDS011;17775;57.948;12.514;2023-02-19T16:10:57;2.85;;;1.27;;
31126;SDS011;17775;57.948;12.514;2023-02-19T16:13:28;7.13;;;1.33;;
31126;SDS011;17775;57.948;12.514;2023-02-19T16:15:56;3.22;;;1.20;;
31126;SDS011;17775;57.948;12.514;2023-02-19T16:18:24;3.40;;;1.05;;
31126;SDS011;17775;57.948;12.514;2023-02-19T16:20:50;3.33;;;1.52;;
31126;SDS011;17775;57.948;12.514;2023-02-19T16:23:17;5.13;;;1.30;;
31126;SDS011;17775;57.948;12.514;2023-02-19T16:25:45;6.03;;;1.15;;
31126;SDS011;17775;57.948;12.514;2023-02-19T16:28:22;2.85;;;1.63;;
31126;SDS011;17775;57.948;12.514;2023-02-19T16:35:51;7.85;;;2.85;;
31126;SDS011;17775;57.948;12.514;2023-02-19T16:38:18;5.22;;;1.60;;
31126;SDS011;17775;57.948;12.514;2023-02-19T16:45:41;10.20;;;1.90;;
31126;SDS011;17775;57.948;12.514;2023-02-19T16:48:08;6.45;;;2.38;;
31126;SDS011;17775;57.948;12.514;2023-02-19T16:50:35;6.28;;;2.45;;
31126;SDS011;17775;57.948;12.514;2023-02-19T16:53:02;5.32;;;2.28;;
31126;SDS011;17775;57.948;12.514;2023-02-19T16:55:31;7.82;;;2.40;;
31126;SDS011;17775;57.948;12.514;2023-02-19T16:58:00;8.90;;;2.88;;
31126;SDS011;17775;57.948;12.514;2023-02-19T17:00:38;6.15;;;2.50;;
31126;SDS011;17775;57.948;12.514;2023-02-19T17:03:15;6.57;;;3.40;;
31126;SDS011;17775;57.948;12.514;2023-02-19T17:05:42;9.35;;;3.80;;
31126;SDS011;17775;57.948;12.514;2023-02-19T17:08:24;7.07;;;2.92;;
31126;SDS011;17775;57.948;12.514;2023-02-19T17:10:51;5.40;;;2.63;;
31126;SDS011;17775;57.948;12.514;2023-02-19T17:13:21;9.18;;;2.92;;
31126;SDS011;17775;57.948;12.514;2023-02-19T17:15:47;7.55;;;3.28;;
31126;SDS011;17775;57.948;12.514;2023-02-19T17:18:13;10.88;;;4.45;;
31126;SDS011;17775;57.948;12.514;2023-02-19T17:20:40;10.10;;;4.13;;
31126;SDS011;17775;57.948;12.514;2023-02-19T17:23:07;10.45;;;3.25;;
31126;SDS011;17775;57.948;12.514;2023-02-19T17:25:35;7.15;;;3.63;;